Tiempo atmosférico en la estación meteorológica de Ainsa, Huesca (610 m.)



Fecha
DESCASC
Temp. máxima en grados centígrados (hora)
DESCASC
Temp. mínima en grados centígrados (hora)
DESCASC
Temp. media en grados centígrados
DESCASC
Racha de viento máxima en m/sg (hora)
DESCASC
Velocidad máxima media en intervalos de 10 minutos(hora)
DESCASC
Precipitaciones diarias en mm
DESCASC
Precipitaciones de 00:00 a 06:00 en mm
DESCASC
Precipitaciones de 06:00 a 12:00 en mm
DESCASC
Precipitaciones de 12:00 a 18:00 en mm
DESCASC
Precipitaciones de 18:00 a 24:00 en mm
DESCASC
18-02-2018 12.9 (14:20) -2.1 (08:00) 5.4 7.22 (15:50) 5.28 (15:00) 0 0 0 0 0
17-02-2018 17.5 (15:00) 4.8 (08:10) 11.2 15 (19:40) 8.89 (19:40) 0 0 0 0 0
16-02-2018 15.2 (12:30) 6.3 (06:00) 10.8 5.28 (00:20) 3.89 (13:10) 0 0 0 0 0
15-02-2018 17.4 (14:50) 0.9 (00:00) 9.1 5.28 (16:10) 4.17 (16:10) 0 0 0 0 0
14-02-2018 9.8 (16:30) -1.8 (-00:0) 4 3.89 (23:00) 2.78 (22:50) 0.2 0 0.2 0 0
13-02-2018 4.3 (15:10) -5.7 (-00:0) -0.7 7.5 (00:10) 5.83 (00:10) 0 0 0 0 0
12-02-2018 10.6 (12:30) -1.5 (-00:0) 4.6 14.17 (17:30) 7.78 (15:00) 0 0 0 0 0
11-02-2018 12.3 (15:50) -2.9 (-00:0) 4.7 11.94 (18:00) 7.78 (17:50) 0 0 0 0 0
10-02-2018 8.1 (16:20) -1.3 (-00:0) 3.4 18.89 (14:50) 9.44 (00:30) 0 0 0 0 0
09-02-2018 6.7 (16:00) -6.1 (-00:0) 0.3 12.22 (23:30) 7.5 (23:59) 0 0 0 0 0
08-02-2018 3.3 (15:30) -6 (-00:0) -1.4 5.28 (16:10) 3.06 (20:30) 0 0 0 0 0
07-02-2018 7 (14:50) -2.3 (-00:0) 2.4 14.17 (06:30) 5.83 (19:50) 0 0 0 0 0
06-02-2018 7.2 (14:30) 1 (00:00) 4.1 10.83 (20:10) 6.67 (18:20) 3 3 0 0 0
05-02-2018 2.1 (13:20) 0.1 (00:00) 1.1 3.61 (21:50) 2.78 (21:50) 21 2.2 5.4 9.6 3.8
04-02-2018 3.4 (13:40) -1.1 (-00:0) 1.2 3.61 (00:20) 2.78 (00:20) 12 0 0 7 5
03-02-2018 11.1 (16:20) -1.7 (-00:0) 4.7 13.06 (02:10) 7.5 (02:20) 0 0 0 0 0
02-02-2018 7.4 (14:50) -4.2 (-00:0) 1.6 17.78 (12:50) 8.61 (20:50) 0 0 0 0 0
01-02-2018 9.2 (15:20) 0 (00:00) 4.6 5.28 (16:30) 3.89 (16:10) 0 0 0 0 0
31-01-2018 13.6 (15:10) -0.7 (-00:0) 6.5 8.06 (16:40) 6.39 (16:40) 0 0 0 0 0
30-01-2018 14.3 (15:10) -0.8 (-00:0) 6.8 6.11 (17:40) 5.28 (17:40) 0 0 0 0 0
29-01-2018 13.8 (15:00) -1.1 (-00:0) 6.4 5.56 (16:30) 4.72 (16:30) 0 0 0 0 0
28-01-2018 15.3 (15:20) -0.6 (-00:0) 7.4 7.78 (16:50) 6.67 (16:50) 0 0 0 0 0
27-01-2018 12.9 (13:50) 1.5 (00:00) 7.2 14.17 (11:50) 8.33 (11:50) 0 0 0 0 0
26-01-2018 9.1 (15:20) 4 (00:00) 6.6 20.28 (09:30) 8.89 (08:20) 3 2.8 0.2 0 0
25-01-2018 9.6 (15:50) 0.8 (00:00) 5.2 9.72 (18:50) 6.11 (18:50) 10.4 0 0 0 10.4
24-01-2018 16.9 (15:50) 0.5 (00:00) 8.7 5 (22:10) 3.61 (22:10) 0 0 0 0 0
23-01-2018 15.8 (16:00) 1.6 (00:00) 8.7 5.28 (16:10) 4.72 (17:00) 0 0 0 0 0
22-01-2018 16.8 (16:20) 1.8 (00:00) 9.3 7.5 (21:10) 5 (21:10) 0 0 0 0 0

Gráficas

Temp. máximas Temp. mínimas Temp. medias Precipitaciones Rachas de viento máximas Velocidades máximas media en intervalos de 10 minutos

Datos horarios

Fecha y hora oficial Temperatura (ºC) Velocidad del viento (km/h) Dirección del viento Racha (km/h) Dirección de racha Precipitación (mm) Presión (hPa) Tendencia (hPa) Humedad (%)
2018-02-20 23:00:00 7.2 23 Oeste 41 Oeste 0 -- -- 58
2018-02-20 22:00:00 9.2 23 Oeste 45 Oeste 0 -- -- 47
2018-02-20 21:00:00 11.6 16 Noroeste 49 Norte 0 -- -- 39
2018-02-20 20:00:00 11.5 22 Norte 48 Norte 0 -- -- 39
2018-02-20 19:00:00 11.6 15 Norte 41 Norte 0 -- -- 39
2018-02-20 18:00:00 14.1 14 Norte 38 Norte 0 -- -- 38
2018-02-20 17:00:00 14.3 13 Norte 39 Noroeste 0 -- -- 38
2018-02-20 16:00:00 16.6 13 Norte 44 Norte 0 -- -- 33
2018-02-20 15:00:00 15.8 14 Norte 44 Norte 0 -- -- 36
2018-02-20 14:00:00 13.9 21 Noroeste 51 Norte 0 -- -- 42
2018-02-20 13:00:00 13.9 17 Norte 35 Noroeste 0 -- -- 42
2018-02-20 12:00:00 13.4 23 Noroeste 39 Noroeste 0 -- -- 44
2018-02-20 11:00:00 11.4 8 Noroeste 14 Norte 0 -- -- 64
2018-02-20 10:00:00 6.2 6 Norte 10 Norte 0 -- -- 88
2018-02-20 09:00:00 4.1 4 Norte 12 Norte 0 -- -- 97
2018-02-20 08:00:00 2.4 5 Noroeste 9 Norte 0 -- -- 99
2018-02-20 07:00:00 2 8 Nordeste 12 Norte 0 -- -- 98
2018-02-20 06:00:00 2.7 4 Oeste 9 Norte 0 -- -- 97
2018-02-20 05:00:00 3.2 7 Norte 10 Norte 0 -- -- 97
2018-02-20 04:00:00 3.4 6 Norte 12 Oeste 0 -- -- 95
2018-02-20 03:00:00 4 8 Noroeste 12 Noroeste 0 -- -- 96
2018-02-20 02:00:00 4.1 8 Noroeste 13 Noroeste 0 -- -- 95
2018-02-20 01:00:00 4.7 4 Norte 10 Norte 0 -- -- 93
2018-02-20 00:00:00 5.4 3 Norte 6 Nordeste 0 -- -- 90
2018-02-19 23:00:00 6 2 Nordeste 7 Norte 0 -- -- 88
2018-02-19 22:00:00 6.5 3 Sudeste 11 Nordeste 0 -- -- 86
2018-02-19 21:00:00 6.8 5 Norte 11 Oeste 0 -- -- 85
2018-02-19 20:00:00 8.1 6 Noroeste 13 Norte 0 -- -- 80
2018-02-19 19:00:00 9.4 5 Sudeste 16 Sur 0 -- -- 74
2018-02-19 18:00:00 10.8 13 Sudeste 22 Sudeste 0 -- -- 70
2018-02-19 17:00:00 12.3 13 Sudeste 26 Sudeste 0 -- -- 64
2018-02-19 16:00:00 12 18 Sudeste 25 Sudeste 0 -- -- 63
2018-02-19 15:00:00 14.6 11 Sudeste 20 Sudeste 0 -- -- 56
2018-02-19 14:00:00 12.2 12 Sudeste 14 Sudeste 0 -- -- 57
2018-02-19 13:00:00 12.7 9 Sudeste 13 Sudeste 0 -- -- 58
2018-02-19 12:00:00 8.9 3 Sudeste 6 Sudeste 0 -- -- 71
2018-02-19 11:00:00 6.7 2 Sudeste 5 Este 0 -- -- 80
2018-02-19 10:00:00 4.5 2 Sur 6 Noroeste 0 -- -- 89
2018-02-19 09:00:00 1.9 5 Noroeste 8 Noroeste 0 -- -- 97
2018-02-19 08:00:00 0.6 5 Oeste 9 Oeste 0 -- -- 98
2018-02-19 07:00:00 0.5 4 Oeste 10 Noroeste 0 -- -- 98
2018-02-19 06:00:00 0.7 2 Noroeste 8 Noroeste 0 -- -- 97
2018-02-19 05:00:00 0.3 5 Norte 9 Oeste 0 -- -- 96
2018-02-19 04:00:00 1.5 2 Noroeste 8 Oeste 0 -- -- 93
2018-02-19 03:00:00 2.3 5 Noroeste 9 Noroeste 0 -- -- 91
2018-02-19 02:00:00 2.5 5 Norte 8 Oeste 0 -- -- 88
2018-02-19 01:00:00 3.2 6 Norte 9 Noroeste 0 -- -- 86
2018-02-19 00:00:00 4.2 2 Noroeste 5 Sudoeste 0 -- -- 81
2018-02-18 23:00:00 4.8 3 Noroeste 9 Norte 0 -- -- 79
2018-02-18 22:00:00 5.7 3 Noroeste 11 Noroeste 0 -- -- 75
2018-02-18 21:00:00 6.4 5 Noroeste 10 Noroeste 0 -- -- 72
2018-02-18 20:00:00 7.2 6 Noroeste 10 Norte 0 -- -- 70
2018-02-18 19:00:00 8.5 4 Este 7 Sudeste 0 -- -- 64
2018-02-18 18:00:00 9.3 6 Sudeste 14 Sur 0 -- -- 60
2018-02-18 17:00:00 10 9 Sur 23 Sudeste 0 -- -- 58
2018-02-18 16:00:00 10.4 18 Sudeste 26 Sudeste 0 -- -- 57
2018-02-18 15:00:00 11.6 19 Sudeste 25 Sudeste 0 -- -- 52
2018-02-18 14:00:00 12.7 15 Sudeste 20 Sudeste 0 -- -- 41
2018-02-18 13:00:00 11.8 15 Sudeste 18 Sudeste 0 -- -- 39
2018-02-18 12:00:00 9.7 6 Sudeste 11 Sudeste 0 -- -- 43
2018-02-18 11:00:00 7.2 6 Sudeste 10 Sur 0 -- -- 50
2018-02-18 10:00:00 2.9 3 Sudoeste 11 Norte 0 -- -- 67
2018-02-18 09:00:00 -0.6 6 Noroeste 17 Noroeste 0 -- -- 77
2018-02-18 08:00:00 -2.1 6 Noroeste 12 Noroeste 0 -- -- 80
2018-02-18 07:00:00 -1.3 10 Noroeste 14 Oeste 0 -- -- 77
2018-02-18 06:00:00 -0.8 6 Noroeste 13 Norte 0 -- -- 75
2018-02-18 05:00:00 0.6 3 Noroeste 11 Norte 0 -- -- 68
2018-02-18 04:00:00 1.2 5 Noroeste 9 Norte 0 -- -- 69
2018-02-18 03:00:00 2.3 3 Norte 8 Norte 0 -- -- 67
2018-02-18 02:00:00 3.2 0 Calma 11 Norte 0 -- -- 68
2018-02-18 01:00:00 3.6 6 Sudeste 17 Sudeste 0 -- -- 67
2018-02-18 00:00:00 5.1 7 Sudeste 12 Sudeste 0 -- -- 64
2018-02-17 23:00:00 6.2 5 Este 12 Sudeste 0 -- -- 61
2018-02-17 22:00:00 7.4 9 Sudeste 25 Norte 0 -- -- 57
2018-02-17 21:00:00 9.8 8 Nordeste 47 Norte 0 -- -- 38
2018-02-17 20:00:00 10.8 29 Norte 54 Norte 0 -- -- 38
2018-02-17 19:00:00 11.7 27 Noroeste 50 Norte 0 -- -- 39
2018-02-17 18:00:00 13.4 24 Norte 38 Noroeste 0 -- -- 38
2018-02-17 17:00:00 15.3 19 Norte 36 Noroeste 0 -- -- 37
2018-02-17 16:00:00 16.3 20 Noroeste 31 Norte 0 -- -- 39
2018-02-17 15:00:00 17.5 11 Noroeste 21 Norte 0 -- -- 42
2018-02-17 14:00:00 16.9 10 Sur 15 Sudoeste 0 -- -- 54
2018-02-17 13:00:00 14.7 4 Sur 10 Sudeste 0 -- -- 63
2018-02-17 12:00:00 13.1 3 Oeste 8 Este 0 -- -- 71
2018-02-17 11:00:00 8.6 3 Nordeste 7 Nordeste 0 -- -- 88
2018-02-17 10:00:00 6.9 2 Sur 9 Noroeste 0 -- -- 93
2018-02-17 09:00:00 5 6 Norte 10 Norte 0 -- -- 99
2018-02-17 08:00:00 5 6 Noroeste 8 Norte 0 -- -- 98
2018-02-17 07:00:00 5.7 3 Noroeste 8 Oeste 0 -- -- 97
2018-02-17 06:00:00 5.8 5 Noroeste 9 Norte 0 -- -- 97
2018-02-17 05:00:00 6.4 4 Noroeste 10 Norte 0 -- -- 94
2018-02-17 04:00:00 6.5 8 Norte 13 Norte 0 -- -- 95
2018-02-17 03:00:00 7.4 6 Noroeste 10 Noroeste 0 -- -- 94
2018-02-17 02:00:00 8.4 3 Norte 8 Oeste 0 -- -- 89
2018-02-17 01:00:00 8.8 6 Noroeste 9 Oeste 0 -- -- 88
2018-02-17 00:00:00 8.9 5 Noroeste 8 Noroeste 0 -- -- 88
2018-02-16 23:00:00 9.4 4 Oeste 9 Oeste 0 -- -- 86
2018-02-16 22:00:00 9.2 5 Noroeste 12 Oeste 0 -- -- 87
2018-02-16 21:00:00 9.4 7 Noroeste 13 Oeste 0 -- -- 88
2018-02-16 20:00:00 10.8 6 Noroeste 10 Norte 0 -- -- 84
2018-02-16 19:00:00 12.4 8 Sudeste 11 Sudeste 0 -- -- 80
2018-02-16 18:00:00 14 5 Sudeste 8 Sudeste 0 -- -- 73
2018-02-16 17:00:00 13.8 7 Sudeste 12 Sudeste 0 -- -- 74
2018-02-16 16:00:00 14.8 8 Sudeste 14 Este 0 -- -- 71
2018-02-16 15:00:00 14.7 9 Sudeste 14 Sudeste 0 -- -- 69
2018-02-16 14:00:00 14.1 9 Sudeste 17 Sudeste 0 -- -- 69
2018-02-16 13:00:00 13.5 12 Sudeste 16 Sudeste 0 -- -- 68
2018-02-16 12:00:00 13.6 3 Sur 8 Sudeste 0 -- -- 68
2018-02-16 11:00:00 9.6 2 Norte 6 Oeste 0 -- -- 82
2018-02-16 10:00:00 7.7 3 Sudoeste 8 Oeste 0 -- -- 89
2018-02-16 09:00:00 6.6 3 Oeste 8 Oeste 0 -- -- 90
2018-02-16 08:00:00 6.5 5 Oeste 9 Noroeste 0 -- -- 89
2018-02-16 07:00:00 6.3 4 Noroeste 9 Noroeste 0 -- -- 90
2018-02-16 06:00:00 6.3 5 Norte 7 Norte 0 -- -- 90
2018-02-16 05:00:00 6.7 2 Sudeste 10 Noroeste 0 -- -- 88
2018-02-16 04:00:00 7 5 Norte 10 Oeste 0 -- -- 87
2018-02-16 03:00:00 7.1 5 Noroeste 9 Noroeste 0 -- -- 87
2018-02-16 02:00:00 7.5 5 Noroeste 9 Noroeste 0 -- -- 85
2018-02-16 01:00:00 8.1 4 Noroeste 19 Norte 0 -- -- 83
2018-02-16 00:00:00 8.5 5 Oeste 15 Noroeste 0 -- -- 82
2018-02-15 23:00:00 9 10 Noroeste 17 Noroeste 0 -- -- 81
2018-02-15 22:00:00 9.9 10 Oeste 15 Noroeste 0 -- -- 80
2018-02-15 21:00:00 10.7 5 Noroeste 12 Oeste 0 -- -- 77
2018-02-15 20:00:00 12.2 9 Noroeste 12 Noroeste 0 -- -- 72
2018-02-15 19:00:00 13.6 9 Noroeste 11 Noroeste 0 -- -- 70
2018-02-15 18:00:00 15.2 6 Sur 17 Sudeste 0 -- -- 67
2018-02-15 17:00:00 16 15 Sudeste 19 Sudeste 0 -- -- 63
2018-02-15 16:00:00 17 12 Sudeste 17 Sudeste 0 -- -- 57
2018-02-15 15:00:00 16.8 7 Sudeste 11 Sudeste 0 -- -- 55
2018-02-15 14:00:00 16.8 8 Sudeste 11 Sudeste 0 -- -- 55
2018-02-15 13:00:00 14.4 7 Sudeste 9 Sudeste 0 -- -- 59
2018-02-15 12:00:00 11.5 5 Sudeste 9 Este 0 -- -- 68
2018-02-15 11:00:00 7 5 Sur 10 Sudeste 0 -- -- 83
2018-02-15 10:00:00 3.6 2 Sudoeste 9 Noroeste 0 -- -- 98
2018-02-15 09:00:00 1.5 3 Oeste 9 Norte 0 -- -- 100
2018-02-15 08:00:00 1 5 Noroeste 12 Noroeste 0 -- -- 99
2018-02-15 07:00:00 1.2 5 Noroeste 15 Norte 0 -- -- 99
2018-02-15 06:00:00 1.7 8 Noroeste 14 Oeste 0 -- -- 99
2018-02-15 05:00:00 1.3 7 Noroeste 13 Oeste 0 -- -- 98
2018-02-15 04:00:00 1.9 10 Noroeste 14 Norte 0 -- -- 98
2018-02-15 03:00:00 2.1 12 Oeste 15 Oeste 0 -- -- 98
2018-02-15 02:00:00 3 6 Noroeste 10 Oeste 0 -- -- 97
2018-02-15 01:00:00 3 6 Noroeste 12 Noroeste 0 -- -- 96
2018-02-15 00:00:00 3.1 9 Noroeste 13 Oeste 0 -- -- 96
2018-02-14 23:00:00 3.9 7 Noroeste 14 Noroeste 0 -- -- 95
2018-02-14 22:00:00 4.6 8 Noroeste 11 Noroeste 0 -- -- 92
2018-02-14 21:00:00 5.4 5 Noroeste 12 Norte 0 -- -- 90
2018-02-14 20:00:00 6.4 5 Noroeste 11 Oeste 0 -- -- 90
2018-02-14 19:00:00 7.1 5 Noroeste 9 Noroeste 0 -- -- 86
2018-02-14 18:00:00 8.7 3 Oeste 5 Noroeste 0 -- -- 78
2018-02-14 17:00:00 9.5 0 Calma 5 Sudoeste 0 -- -- 75
2018-02-14 16:00:00 9.1 2 Sudeste 9 Sur 0 -- -- 73
2018-02-14 15:00:00 8.5 4 Sur 9 Sudeste 0 -- -- 74
2018-02-14 14:00:00 8.1 3 Este 6 Este 0 -- -- 75
2018-02-14 13:00:00 7.5 4 Sur 8 Este 0 -- -- 66
2018-02-14 12:00:00 5 3 Sur 6 Oeste 0 -- -- 78
2018-02-14 11:00:00 3.2 3 Oeste 8 Oeste 0 -- -- 89
2018-02-14 10:00:00 0.6 4 Noroeste 6 Noroeste 0.2 -- -- 96
2018-02-14 09:00:00 -0.8 4 Noroeste 9 Oeste 0 -- -- 98
2018-02-14 08:00:00 -1.6 4 Noroeste 10 Norte 0 -- -- 98
2018-02-14 07:00:00 -1.6 2 Noroeste 7 Nordeste 0 -- -- 97
2018-02-14 06:00:00 -1.1 4 Noroeste 8 Oeste 0 -- -- 97
2018-02-14 05:00:00 -1.1 5 Oeste 10 Sudoeste 0 -- -- 98
2018-02-14 04:00:00 -1.5 5 Norte 9 Noroeste 0 -- -- 98
2018-02-14 03:00:00 -1.5 5 Noroeste 9 Nordeste 0 -- -- 98
2018-02-14 02:00:00 -1.5 4 Oeste 9 Norte 0 -- -- 98
2018-02-14 01:00:00 -1.3 4 Norte 7 Oeste 0 -- -- 98
2018-02-14 00:00:00 -1.2 3 Norte 8 Oeste 0 -- -- 96
2018-02-13 23:00:00 -0.6 6 Noroeste 9 Noroeste 0 -- -- 96
2018-02-13 22:00:00 -0.5 6 Noroeste 8 Oeste 0 -- -- 96
2018-02-13 21:00:00 -0.3 9 Oeste 12 Oeste 0 -- -- 96
2018-02-13 20:00:00 0.7 5 Noroeste 8 Norte 0 -- -- 92
2018-02-13 19:00:00 1.3 6 Nordeste 11 Norte 0 -- -- 90
2018-02-13 18:00:00 2.1 4 Sudeste 16 Sudeste 0 -- -- 87
2018-02-13 17:00:00 2.8 11 Sudeste 16 Sudeste 0 -- -- 80
2018-02-13 16:00:00 3.5 6 Sudeste 12 Este 0 -- -- 68
2018-02-13 15:00:00 4.2 2 Oeste 14 Sudeste 0 -- -- 61
2018-02-13 14:00:00 3.3 3 Nordeste 12 Este 0 -- -- 57
2018-02-13 13:00:00 2.1 4 Sudoeste 9 Este 0 -- -- 53
2018-02-13 12:00:00 1.7 2 Sur 8 Sur 0 -- -- 40
2018-02-13 11:00:00 -0.9 2 Nordeste 5 Este 0 -- -- 58
2018-02-13 10:00:00 -1.9 3 Noroeste 9 Oeste 0 -- -- 59
2018-02-13 09:00:00 -4.5 4 Noroeste 8 Norte 0 -- -- 63
2018-02-13 08:00:00 -5.7 4 Norte 12 Norte 0 -- -- 67
2018-02-13 07:00:00 -5.3 6 Noroeste 11 Noroeste 0 -- -- 62
2018-02-13 06:00:00 -4.7 6 Norte 10 Noroeste 0 -- -- 57
2018-02-13 05:00:00 -4.5 8 Noroeste 13 Norte 0 -- -- 56
2018-02-13 04:00:00 -3.9 6 Norte 10 Oeste 0 -- -- 53
2018-02-13 03:00:00 -2.8 6 Norte 13 Noroeste 0 -- -- 50
2018-02-13 02:00:00 -2.2 6 Noroeste 9 Oeste 0 -- -- 46
2018-02-13 01:00:00 -1.3 11 Noroeste 27 Oeste 0 -- -- 45
2018-02-13 00:00:00 -1 26 Oeste 32 Oeste 0 -- -- 45
2018-02-12 23:00:00 1.8 16 Noroeste 32 Noroeste 0 -- -- 28
2018-02-12 22:00:00 2.1 19 Noroeste 30 Norte 0 -- -- 29
2018-02-12 21:00:00 2.9 18 Noroeste 34 Nordeste 0 -- -- 30
2018-02-12 20:00:00 3.3 18 Norte 50 Norte 0 -- -- 28
2018-02-12 19:00:00 3.9 25 Norte 48 Noroeste 0 -- -- 30
2018-02-12 18:00:00 5.5 26 Norte 51 Norte 0 -- -- 29
2018-02-12 17:00:00 7.4 24 Norte 48 Norte 0 -- -- 26
2018-02-12 16:00:00 8.9 18 Norte 45 Norte 0 -- -- 27
2018-02-12 15:00:00 9.1 28 Norte 46 Norte 0 -- -- 29
2018-02-12 14:00:00 8.7 19 Norte 44 Norte 0 -- -- 33
2018-02-12 13:00:00 9.6 11 Norte 42 Norte 0 -- -- 36
2018-02-12 12:00:00 10 14 Norte 32 Nordeste 0 -- -- 37
2018-02-12 11:00:00 6.2 7 Sudeste 14 Sudeste 0 -- -- 63
2018-02-12 10:00:00 3.5 6 Sudoeste 15 Oeste 0 -- -- 81
2018-02-12 09:00:00 0.7 10 Norte 18 Norte 0 -- -- 89
2018-02-12 08:00:00 0.7 7 Noroeste 17 Norte 0 -- -- 90
2018-02-12 07:00:00 0.9 10 Norte 14 Norte 0 -- -- 93
2018-02-12 06:00:00 1.1 12 Norte 15 Norte 0 -- -- 95
2018-02-12 05:00:00 2 9 Norte 19 Norte 0 -- -- 93
2018-02-12 04:00:00 2.5 9 Norte 18 Norte 0 -- -- 93
2018-02-12 03:00:00 3.1 13 Norte 21 Norte 0 -- -- 92
2018-02-12 02:00:00 4 12 Norte 18 Norte 0 -- -- 91
2018-02-12 01:00:00 4.4 13 Norte 21 Noroeste 0 -- -- 92
2018-02-12 00:00:00 4.9 13 Norte 16 Norte 0 -- -- 91
2018-02-11 23:00:00 5.3 9 Nordeste 16 Nordeste 0 -- -- 90
2018-02-11 22:00:00 6.3 17 Norte 23 Norte 0 -- -- 87
2018-02-11 21:00:00 7.3 13 Norte 18 Norte 0 -- -- 85
2018-02-11 20:00:00 9 9 Oeste 18 Sudoeste 0 -- -- 75
2018-02-11 19:00:00 9.9 11 Oeste 29 Oeste 0 -- -- 72
2018-02-11 18:00:00 10.9 27 Oeste 43 Oeste 0 -- -- 72
2018-02-11 17:00:00 12 21 Oeste 30 Oeste 0 -- -- 67
2018-02-11 16:00:00 12.3 5 Este 8 Sudeste 0 -- -- 59
2018-02-11 15:00:00 11.9 3 Sudeste 9 Sudeste 0 -- -- 56
2018-02-11 14:00:00 11 5 Sudeste 13 Sudeste 0 -- -- 53
2018-02-11 13:00:00 9.7 8 Sudeste 12 Este 0 -- -- 47
2018-02-11 12:00:00 5.3 4 Sur 10 Oeste 0 -- -- 60
2018-02-11 11:00:00 2.5 4 Oeste 9 Oeste 0 -- -- 69
2018-02-11 10:00:00 0.4 4 Noroeste 9 Oeste 0 -- -- 75
2018-02-11 09:00:00 -2.4 4 Noroeste 9 Oeste 0 -- -- 82
2018-02-11 08:00:00 -2.7 0 Calma 8 Oeste 0 -- -- 79
2018-02-11 07:00:00 -2.8 5 Norte 10 Oeste 0 -- -- 79
2018-02-11 06:00:00 -2.3 5 Norte 9 Norte 0 -- -- 74
2018-02-11 05:00:00 -2.3 5 Norte 10 Oeste 0 -- -- 74
2018-02-11 04:00:00 -1.6 5 Noroeste 8 Oeste 0 -- -- 71
2018-02-11 03:00:00 -1.3 4 Oeste 9 Oeste 0 -- -- 69
2018-02-11 02:00:00 -1.5 3 Oeste 10 Oeste 0 -- -- 66
2018-02-11 01:00:00 -1.6 7 Oeste 14 Oeste 0 -- -- 67
2018-02-11 00:00:00 -1.3 8 Oeste 10 Oeste 0 -- -- 65
2018-02-10 23:00:00 -0.3 5 Norte 10 Norte 0 -- -- 54
2018-02-10 22:00:00 0.2 3 Norte 13 Oeste 0 -- -- 51
2018-02-10 21:00:00 1.5 9 Oeste 21 Sudoeste 0 -- -- 48
2018-02-10 20:00:00 2.5 15 Oeste 21 Oeste 0 -- -- 42
2018-02-10 19:00:00 4.8 20 Noroeste 34 Oeste 0 -- -- 30
2018-02-10 18:00:00 7.3 14 Oeste 43 Norte 0 -- -- 24
2018-02-10 17:00:00 7.8 14 Norte 62 Norte 0 -- -- 22
2018-02-10 16:00:00 7.5 19 Norte 68 Norte 0 -- -- 24
2018-02-10 15:00:00 6.7 29 Norte 68 Norte 0 -- -- 26
2018-02-10 14:00:00 6.4 28 Norte 67 Norte 0 -- -- 29
2018-02-10 13:00:00 6.7 20 Norte 55 Nordeste 0 -- -- 32
2018-02-10 12:00:00 7.2 9 Norte 32 Norte 0 -- -- 33
2018-02-10 11:00:00 4.6 3 Noroeste 18 Oeste 0 -- -- 41
2018-02-10 10:00:00 2.8 5 Noroeste 21 Norte 0 -- -- 50
2018-02-10 09:00:00 2.1 5 Sudoeste 31 Norte 0 -- -- 51
2018-02-10 08:00:00 1.7 12 Norte 37 Noroeste 0 -- -- 46
2018-02-10 07:00:00 2 23 Norte 50 Norte 0 -- -- 43
2018-02-10 06:00:00 2.2 21 Norte 48 Norte 0 -- -- 40
2018-02-10 05:00:00 2.5 18 Norte 44 Norte 0 -- -- 37
2018-02-10 04:00:00 2.8 17 Noroeste 50 Noroeste 0 -- -- 35
2018-02-10 03:00:00 3.2 29 Noroeste 50 Noroeste 0 -- -- 37
2018-02-10 02:00:00 3.3 27 Noroeste 47 Noroeste 0 -- -- 34
2018-02-10 01:00:00 3.8 22 Noroeste 57 Norte 0 -- -- 34
2018-02-10 00:00:00 4.3 27 Noroeste 44 Norte 0 -- -- 35
2018-02-09 23:00:00 2.6 10 Noroeste 27 Norte 0 -- -- 50
2018-02-09 22:00:00 -0.3 9 Oeste 17 Oeste 0 -- -- 85
2018-02-09 21:00:00 0.4 6 Nordeste 15 Oeste 0 -- -- 83
2018-02-09 20:00:00 1.9 7 Noroeste 12 Oeste 0 -- -- 75
2018-02-09 19:00:00 3.4 9 Sur 13 Este 0 -- -- 70
2018-02-09 18:00:00 5.1 12 Sudeste 16 Sudeste 0 -- -- 63
2018-02-09 17:00:00 6 12 Sudeste 15 Sudeste 0 -- -- 57
2018-02-09 16:00:00 6.7 11 Sudeste 16 Sudeste 0 -- -- 55
2018-02-09 15:00:00 6.4 8 Sudeste 13 Sudeste 0 -- -- 55
2018-02-09 14:00:00 5.1 4 Este 12 Este 0 -- -- 53
2018-02-09 13:00:00 2.4 4 Sudeste 9 Sur 0 -- -- 61
2018-02-09 12:00:00 0.3 4 Sur 9 Sudeste 0 -- -- 74
2018-02-09 11:00:00 -1.3 2 Oeste 6 Sudoeste 0 -- -- 83
2018-02-09 10:00:00 -3.3 0 Calma 8 Oeste 0 -- -- 90
2018-02-09 09:00:00 -4.8 2 Noroeste 8 Oeste 0 -- -- 94
2018-02-09 08:00:00 -5.9 7 Norte 9 Noroeste 0 -- -- 95
2018-02-09 07:00:00 -5.3 6 Noroeste 8 Noroeste 0 -- -- 94
2018-02-09 06:00:00 -5 0 Calma 4 Sudeste 0 -- -- 94
2018-02-09 05:00:00 -4.3 4 Norte 8 Noroeste 0 -- -- 90
2018-02-09 04:00:00 -4.1 4 Noroeste 11 Norte 0 -- -- 90
2018-02-09 03:00:00 -3.5 7 Norte 13 Noroeste 0 -- -- 89
2018-02-09 02:00:00 -3.4 10 Noroeste 14 Noroeste 0 -- -- 91
2018-02-09 01:00:00 -3.5 7 Norte 10 Norte 0 -- -- 92
2018-02-09 00:00:00 -2.7 6 Noroeste 10 Norte 0 -- -- 91
2018-02-08 23:00:00 -1.9 8 Norte 10 Norte 0 -- -- 87
2018-02-08 22:00:00 -1.4 4 Noroeste 11 Norte 0 -- -- 85
2018-02-08 21:00:00 -1 8 Noroeste 13 Oeste 0 -- -- 84
2018-02-08 20:00:00 -0.5 8 Noroeste 11 Oeste 0 -- -- 82
2018-02-08 19:00:00 0.7 8 Noroeste 10 Noroeste 0 -- -- 77
2018-02-08 18:00:00 1.9 3 Oeste 19 Sudeste 0 -- -- 72
2018-02-08 17:00:00 2.3 7 Este 19 Nordeste 0 -- -- 72
2018-02-08 16:00:00 3.1 4 Sudeste 11 Este 0 -- -- 66
2018-02-08 15:00:00 2.9 3 Oeste 14 Oeste 0 -- -- 69
2018-02-08 14:00:00 2.9 3 Nordeste 12 Este 0 -- -- 65
2018-02-08 13:00:00 2 3 Noroeste 8 Norte 0 -- -- 62
2018-02-08 12:00:00 1.5 2 Este 9 Sudeste 0 -- -- 60
2018-02-08 11:00:00 -0.9 3 Sudeste 11 Sur 0 -- -- 70
2018-02-08 10:00:00 -3.3 4 Oeste 8 Sudoeste 0 -- -- 87
2018-02-08 09:00:00 -5.1 2 Nordeste 8 Oeste 0 -- -- 87
2018-02-08 08:00:00 -6 2 Norte 9 Norte 0 -- -- 88
2018-02-08 07:00:00 -5.7 5 Noroeste 8 Noroeste 0 -- -- 84
2018-02-08 06:00:00 -5.7 5 Noroeste 12 Norte 0 -- -- 85
2018-02-08 05:00:00 -4.7 4 Noroeste 9 Norte 0 -- -- 79
2018-02-08 04:00:00 -4.6 4 Noroeste 10 Norte 0 -- -- 80
2018-02-08 03:00:00 -4 4 Norte 9 Norte 0 -- -- 76
2018-02-08 02:00:00 -3.6 4 Norte 9 Sudeste 0 -- -- 74
2018-02-08 01:00:00 -3.1 3 Norte 9 Oeste 0 -- -- 72
2018-02-08 00:00:00 -2.3 4 Noroeste 10 Oeste 0 -- -- 65
2018-02-07 23:00:00 -2 5 Noroeste 8 Noroeste 0 -- -- 64
2018-02-07 22:00:00 -1 6 Noroeste 15 Oeste 0 -- -- 60
2018-02-07 21:00:00 -0.3 14 Oeste 24 Oeste 0 -- -- 57
2018-02-07 20:00:00 0.8 18 Oeste 27 Noroeste 0 -- -- 52
2018-02-07 19:00:00 2.2 15 Noroeste 27 Norte 0 -- -- 38
2018-02-07 18:00:00 4.7 17 Noroeste 28 Norte 0 -- -- 32
2018-02-07 17:00:00 6 16 Noroeste 29 Norte 0 -- -- 32
2018-02-07 16:00:00 6.6 17 Noroeste 30 Noroeste 0 -- -- 34
2018-02-07 15:00:00 6.8 17 Noroeste 28 Norte 0 -- -- 32
2018-02-07 14:00:00 6.4 15 Norte 31 Noroeste 0 -- -- 32
2018-02-07 13:00:00 6.4 15 Norte 24 Norte 0 -- -- 32
2018-02-07 12:00:00 6 8 Sudeste 14 Este 0 -- -- 44
2018-02-07 11:00:00 3.5 9 Sudeste 18 Sudeste 0 -- -- 53
2018-02-07 10:00:00 1.6 4 Sudeste 19 Norte 0 -- -- 61
2018-02-07 09:00:00 0.1 8 Noroeste 27 Noroeste 0 -- -- 58
2018-02-07 08:00:00 -0.7 9 Oeste 22 Oeste 0 -- -- 56
2018-02-07 07:00:00 -0.8 11 Nordeste 51 Norte 0 -- -- 62
2018-02-07 06:00:00 -0.5 8 Noroeste 25 Oeste 0 -- -- 58
2018-02-07 05:00:00 -0.2 16 Noroeste 26 Oeste 0 -- -- 53
2018-02-07 04:00:00 -0.7 15 Oeste 29 Oeste 0 -- -- 59
2018-02-07 03:00:00 -0.4 8 Norte 28 Oeste 0 -- -- 67
2018-02-07 02:00:00 0 5 Noroeste 16 Noroeste 0 -- -- 65
2018-02-07 01:00:00 0.6 4 Noroeste 19 Noroeste 0 -- -- 72
2018-02-07 00:00:00 1.7 17 Oeste 24 Noroeste 0 -- -- 52
2018-02-06 23:00:00 2 11 Oeste 24 Noroeste 0 -- -- 57
2018-02-06 22:00:00 2.8 6 Noroeste 19 Norte 0 -- -- 68
2018-02-06 21:00:00 3.3 19 Noroeste 39 Norte 0 -- -- 53
2018-02-06 20:00:00 3.4 22 Noroeste 31 Oeste 0 -- -- 65
2018-02-06 19:00:00 3.6 22 Noroeste 36 Noroeste 0 -- -- 59
2018-02-06 18:00:00 4.4 17 Noroeste 26 Oeste 0 -- -- 56
2018-02-06 17:00:00 4.9 17 Oeste 24 Oeste 0 -- -- 69
2018-02-06 16:00:00 5.7 13 Oeste 26 Sudoeste 0 -- -- 72
2018-02-06 15:00:00 6.8 14 Sudoeste 22 Oeste 0 -- -- 70
2018-02-06 14:00:00 6.4 9 Oeste 14 Oeste 0 -- -- 74
2018-02-06 13:00:00 5.2 4 Sudoeste 9 Sudoeste 0 -- -- 80
2018-02-06 12:00:00 4.3 6 Oeste 11 Oeste 0 -- -- 91
2018-02-06 11:00:00 2.9 0 Calma 5 Norte 0 -- -- 100
2018-02-06 10:00:00 1.8 4 Norte 5 Este 0 -- -- 100
2018-02-06 09:00:00 1.2 3 Sudeste 6 Noroeste 0 -- -- 100
2018-02-06 08:00:00 1 4 Norte 6 Norte 0 -- -- 100
2018-02-06 07:00:00 1.1 0 Calma 8 Nordeste 0 -- -- 100
2018-02-06 06:00:00 1.3 6 Norte 7 Norte 0 -- -- 100
2018-02-06 05:00:00 1.4 4 Nordeste 6 Este 0 -- -- 100
2018-02-06 04:00:00 1.6 0 Calma 4 Norte 0.6 -- -- 100
2018-02-06 03:00:00 1.6 4 Noroeste 4 Noroeste 0.6 -- -- 100
2018-02-06 02:00:00 1.6 0 Calma 3 Oeste 0.8 -- -- 100
2018-02-06 01:00:00 1.6 0 Calma 6 Noroeste 1 -- -- 100
2018-02-06 00:00:00 1.6 0 Calma 5 Sudeste 0.2 -- -- 100
2018-02-05 23:00:00 1.6 0 Calma 6 Norte 0.8 -- -- 100
2018-02-05 22:00:00 1.6 6 Norte 13 Norte 0.8 -- -- 100
2018-02-05 21:00:00 1.6 4 Norte 9 Norte 0.6 -- -- 100
2018-02-05 20:00:00 1.7 5 Noroeste 10 Noroeste 0.6 -- -- 100
2018-02-05 19:00:00 1.6 3 Norte 8 Norte 0.8 -- -- 100
2018-02-05 18:00:00 1.7 6 Norte 9 Norte 0.6 -- -- 100
2018-02-05 17:00:00 1.7 3 Noroeste 7 Oeste 0.8 -- -- 100
2018-02-05 16:00:00 1.2 3 Norte 6 Norte 1.6 -- -- 100
2018-02-05 15:00:00 1.1 3 Nordeste 9 Oeste 1.8 -- -- 100
2018-02-05 14:00:00 2 7 Oeste 11 Oeste 2.8 -- -- 100
2018-02-05 13:00:00 2 3 Este 8 Oeste 2 -- -- 100
2018-02-05 12:00:00 1.4 5 Oeste 8 Oeste 2 -- -- 100
2018-02-05 11:00:00 1 5 Noroeste 8 Oeste 1.4 -- -- 100
2018-02-05 10:00:00 0.6 0 Calma 6 Noroeste 1 -- -- 100
2018-02-05 09:00:00 0.5 4 Noroeste 6 Noroeste 0.4 -- -- 100
2018-02-05 08:00:00 0.4 3 Norte 6 Oeste 0.4 -- -- 100
2018-02-05 07:00:00 0.3 4 Noroeste 6 Oeste 0.2 -- -- 100
2018-02-05 06:00:00 0.1 3 Oeste 6 Oeste 0.4 -- -- 100
2018-02-05 05:00:00 0.2 2 Nordeste 4 Norte 0.2 -- -- 100
2018-02-05 04:00:00 0.2 2 Norte 6 Noroeste 0.4 -- -- 100
2018-02-05 03:00:00 0.1 5 Oeste 5 Oeste 0.4 -- -- 100
2018-02-05 02:00:00 0.1 0 Calma 5 Este 0.4 -- -- 100
2018-02-05 01:00:00 0.2 3 Noroeste 6 Noroeste 0.4 -- -- 100
2018-02-05 00:00:00 0.1 4 Noroeste 9 Oeste 0.8 -- -- 100
2018-02-04 23:00:00 0 6 Oeste 8 Oeste 0.8 -- -- 100
2018-02-04 22:00:00 0 3 Oeste -- -- 0.2 -- -- 100
2018-02-04 21:00:00 -0.1 4 Sudeste 11 Sudeste 0.4 -- -- 100
2018-02-04 20:00:00 0 9 Sudeste 12 Sudeste 0.6 -- -- 100
2018-02-04 19:00:00 0.6 6 Oeste 13 Sudoeste 2.2 -- -- 99
2018-02-04 18:00:00 1.8 6 Sudoeste 10 Oeste 1.4 -- -- 98
2018-02-04 17:00:00 2.4 5 Oeste 9 Oeste 1.2 -- -- 97
2018-02-04 16:00:00 2.8 4 Oeste 6 Oeste 1.6 -- -- 96
2018-02-04 15:00:00 2.9 4 Sudeste 9 Sudeste 1.8 -- -- 97
2018-02-04 14:00:00 3.4 3 Sudeste 6 Oeste 0.4 -- -- 95
2018-02-04 13:00:00 3.1 3 Oeste 7 Oeste 0.6 -- -- 90
2018-02-04 12:00:00 2.9 0 Calma 5 Oeste 0 -- -- 93
2018-02-04 11:00:00 1.9 2 Oeste 5 Sur 0 -- -- 95
2018-02-04 10:00:00 0.3 0 Calma 4 Noroeste 0 -- -- 97
2018-02-04 09:00:00 -0.6 0 Calma 5 Noroeste 0 -- -- 97
2018-02-04 08:00:00 -0.9 5 Noroeste 9 Norte 0 -- -- 97
2018-02-04 07:00:00 -0.9 5 Norte 6 Norte 0 -- -- 98
2018-02-04 06:00:00 -0.9 6 Noroeste 11 Norte 0 -- -- 98
2018-02-04 05:00:00 -0.1 5 Noroeste 10 Noroeste 0 -- -- 96
2018-02-04 04:00:00 0.1 8 Noroeste 11 Norte 0 -- -- 96
2018-02-04 03:00:00 -0.2 7 Noroeste 8 Noroeste 0 -- -- 95
2018-02-04 02:00:00 0 4 Este 6 Sudeste 0 -- -- 95
2018-02-04 01:00:00 0.2 4 Noroeste 13 Noroeste 0 -- -- 95
2018-02-04 00:00:00 0.1 8 Noroeste 13 Norte 0 -- -- 95
2018-02-03 23:00:00 0.6 7 Oeste 12 Norte 0 -- -- 91
2018-02-03 22:00:00 2.3 5 Norte 12 Noroeste 0 -- -- 90
2018-02-03 21:00:00 3.2 5 Noroeste 9 Norte 0 -- -- 84
2018-02-03 20:00:00 3.8 9 Oeste 22 Sudoeste 0 -- -- 82
2018-02-03 19:00:00 5.1 9 Oeste 24 Oeste 0 -- -- 78
2018-02-03 18:00:00 6.3 18 Oeste 32 Sudoeste 0 -- -- 67
2018-02-03 17:00:00 8 24 Sudoeste 33 Sudoeste 0 -- -- 56
2018-02-03 16:00:00 10.7 15 Oeste 24 Oeste 0 -- -- 44
2018-02-03 15:00:00 9.5 7 Norte 22 Norte 0 -- -- 46
2018-02-03 14:00:00 8.6 8 Norte 19 Norte 0 -- -- 48
2018-02-03 13:00:00 7.6 7 Sudeste 13 Sudeste 0 -- -- 53
2018-02-03 12:00:00 7.1 9 Sudeste 15 Este 0 -- -- 51
2018-02-03 11:00:00 4.2 8 Sudeste 14 Sudeste 0 -- -- 55
2018-02-03 10:00:00 2 6 Sudeste 14 Sudeste 0 -- -- 59
2018-02-03 09:00:00 -1.1 8 Nordeste 14 Este 0 -- -- 62
2018-02-03 08:00:00 -1.3 10 Este 16 Sudeste 0 -- -- 59
2018-02-03 07:00:00 -0.6 5 Sudeste 14 Norte 0 -- -- 50
2018-02-03 06:00:00 0.6 9 Norte 21 Noroeste 0 -- -- 43
2018-02-03 05:00:00 1.7 14 Oeste 30 Norte 0 -- -- 39
2018-02-03 04:00:00 2.6 22 Norte 35 Norte 0 -- -- 37
2018-02-03 03:00:00 2.7 22 Norte 47 Norte 0 -- -- 37
2018-02-03 02:00:00 3.1 26 Norte 45 Norte 0 -- -- 37
2018-02-03 01:00:00 -0.3 13 Oeste 22 Oeste 0 -- -- 55
2018-02-03 00:00:00 -0.5 14 Noroeste 23 Noroeste 0 -- -- 55
2018-02-02 23:00:00 1.2 17 Oeste 26 Oeste 0 -- -- 50
2018-02-02 22:00:00 3.8 18 Noroeste 43 Norte 0 -- -- 42
2018-02-02 21:00:00 3.9 29 Norte 49 Norte 0 -- -- 39
2018-02-02 20:00:00 3.4 22 Noroeste 37 Noroeste 0 -- -- 36
2018-02-02 19:00:00 4 16 Norte 38 Noroeste 0 -- -- 33
2018-02-02 18:00:00 5 15 Norte 44 Norte 0 -- -- 33
2018-02-02 17:00:00 6.4 16 Norte 63 Norte 0 -- -- 31
2018-02-02 16:00:00 6.8 27 Norte 63 Norte 0 -- -- 28
2018-02-02 15:00:00 7.1 29 Norte 58 Norte 0 -- -- 29
2018-02-02 14:00:00 7.1 27 Norte 60 Norte 0 -- -- 29
2018-02-02 13:00:00 6.8 25 Norte 64 Norte 0 -- -- 29
2018-02-02 12:00:00 6.8 27 Norte 52 Norte 0 -- -- 30
2018-02-02 11:00:00 5.9 17 Norte 44 Norte 0 -- -- 38
2018-02-02 10:00:00 0.1 15 Oeste 28 Oeste 0 -- -- 75
2018-02-02 09:00:00 -4 5 Sudoeste 12 Sudoeste 0 -- -- 99
2018-02-02 08:00:00 -3.9 4 Sudeste 9 Nordeste 0 -- -- 99
2018-02-02 07:00:00 -3.4 3 Oeste 9 Noroeste 0 -- -- 96
2018-02-02 06:00:00 -3.1 8 Noroeste 10 Norte 0 -- -- 99
2018-02-02 05:00:00 -2.6 2 Oeste 6 Norte 0 -- -- 99
2018-02-02 04:00:00 -2.2 2 Noroeste 8 Norte 0 -- -- 99
2018-02-02 03:00:00 -1.5 2 Norte 6 Nordeste 0 -- -- 99
2018-02-02 02:00:00 -1 4 Nordeste 8 Nordeste 0 -- -- 98
2018-02-02 01:00:00 -0.5 4 Este 9 Nordeste 0 -- -- 98
2018-02-02 00:00:00 0 5 Sudoeste 13 Noroeste 0 -- -- 95
2018-02-01 23:00:00 0.8 9 Noroeste 13 Oeste 0 -- -- 94
2018-02-01 22:00:00 1.6 5 Oeste 9 Oeste 0 -- -- 95
2018-02-01 21:00:00 2.9 4 Noroeste 16 Sudeste 0 -- -- 92
2018-02-01 20:00:00 3.4 6 Este 18 Sudeste 0 -- -- 92
2018-02-01 19:00:00 4.3 7 Sudeste 17 Sudeste 0 -- -- 90
2018-02-01 18:00:00 5.4 9 Sudeste 19 Sudeste 0 -- -- 84
2018-02-01 17:00:00 7.1 13 Sudeste 19 Este 0 -- -- 80
2018-02-01 16:00:00 8.5 6 Sudeste 18 Sudeste 0 -- -- 76
2018-02-01 15:00:00 8.8 7 Sudeste 13 Sudeste 0 -- -- 75
2018-02-01 14:00:00 7.2 6 Sur 12 Este 0 -- -- 80
2018-02-01 13:00:00 5.2 7 Sudeste 9 Sudeste 0 -- -- 90
2018-02-01 12:00:00 3.5 7 Sur 13 Sudeste 0 -- -- 95
2018-02-01 11:00:00 3.2 3 Sur 8 Norte 0 -- -- 95
2018-02-01 10:00:00 1.8 4 Oeste 9 Nordeste 0 -- -- 98
2018-02-01 09:00:00 1.1 0 Calma 8 Este 0 -- -- 98
2018-02-01 08:00:00 1 4 Oeste 6 Oeste 0 -- -- 98
2018-02-01 07:00:00 1 4 Norte 6 Norte 0 -- -- 98
2018-02-01 06:00:00 0.9 4 Oeste 13 Noroeste 0 -- -- 98
2018-02-01 05:00:00 1.3 4 Noroeste 8 Norte 0 -- -- 96
2018-02-01 04:00:00 1.1 4 Noroeste 8 Oeste 0 -- -- 97
2018-02-01 03:00:00 1.5 4 Noroeste 9 Oeste 0 -- -- 96
2018-02-01 02:00:00 1.7 7 Oeste 9 Oeste 0 -- -- 97
2018-02-01 01:00:00 1.6 6 Oeste 8 Oeste 0 -- -- 97
2018-02-01 00:00:00 2.2 3 Norte 6 Sudeste 0 -- -- 95
2018-01-31 23:00:00 2.9 4 Noroeste 11 Norte 0 -- -- 92
2018-01-31 22:00:00 4.1 3 Oeste 10 Oeste 0 -- -- 88
2018-01-31 21:00:00 4.7 9 Oeste 11 Oeste 0 -- -- 89
2018-01-31 20:00:00 6.4 5 Noroeste 11 Norte 0 -- -- 83
2018-01-31 19:00:00 7.9 5 Sudeste 21 Sudeste 0 -- -- 78
2018-01-31 18:00:00 9.2 17 Sudeste 27 Sudeste 0 -- -- 74
2018-01-31 17:00:00 11.4 23 Sudeste 29 Sudeste 0 -- -- 68
2018-01-31 16:00:00 13 19 Sudeste 23 Sudeste 0 -- -- 58
2018-01-31 15:00:00 13.4 13 Sudeste 17 Sudeste 0 -- -- 55
2018-01-31 14:00:00 12.9 10 Sudeste 13 Sudeste 0 -- -- 54
2018-01-31 13:00:00 10.5 5 Sudeste 8 Sur 0 -- -- 59
2018-01-31 12:00:00 7.6 3 Este 9 Sudeste 0 -- -- 69
2018-01-31 11:00:00 4.7 4 Sudeste 8 Sudeste 0 -- -- 82
2018-01-31 10:00:00 1.4 2 Noroeste 6 Noroeste 0 -- -- 94
2018-01-31 09:00:00 -0.4 3 Noroeste 11 Noroeste 0 -- -- 98
2018-01-31 08:00:00 -0.6 6 Noroeste 11 Noroeste 0 -- -- 98
2018-01-31 07:00:00 -0.7 5 Noroeste 11 Norte 0 -- -- 98
2018-01-31 06:00:00 0 8 Norte 11 Norte 0 -- -- 97
2018-01-31 05:00:00 1 4 Noroeste 12 Norte 0 -- -- 95
2018-01-31 04:00:00 1.1 5 Noroeste 12 Norte 0 -- -- 95
2018-01-31 03:00:00 1.3 10 Norte 13 Norte 0 -- -- 96
2018-01-31 02:00:00 1.9 10 Noroeste 14 Norte 0 -- -- 97
2018-01-31 01:00:00 2.3 4 Norte 9 Noroeste 0 -- -- 92
2018-01-31 00:00:00 2.9 6 Noroeste 13 Norte 0 -- -- 93
2018-01-30 23:00:00 3.4 10 Norte 15 Norte 0 -- -- 92
2018-01-30 22:00:00 4.3 8 Noroeste 12 Noroeste 0 -- -- 91
2018-01-30 21:00:00 5.7 6 Noroeste 11 Oeste 0 -- -- 90
2018-01-30 20:00:00 7.1 8 Norte 13 Norte 0 -- -- 86
2018-01-30 19:00:00 8.6 7 Este 15 Sudeste 0 -- -- 84
2018-01-30 18:00:00 10.2 12 Sudeste 22 Sudeste 0 -- -- 78
2018-01-30 17:00:00 12.5 15 Sudeste 20 Sudeste 0 -- -- 68
2018-01-30 16:00:00 13.5 15 Sudeste 17 Sudeste 0 -- -- 58
2018-01-30 15:00:00 14.1 9 Sudeste 12 Sudeste 0 -- -- 52
2018-01-30 14:00:00 12.5 6 Sudeste 9 Sudeste 0 -- -- 50
2018-01-30 13:00:00 10.6 5 Sudeste 8 Sur 0 -- -- 61
2018-01-30 12:00:00 8.1 4 Sudeste 8 Sur 0 -- -- 68
2018-01-30 11:00:00 4.5 3 Sur 8 Sudeste 0 -- -- 82
2018-01-30 10:00:00 2.1 0 Calma 8 Norte 0 -- -- 92
2018-01-30 09:00:00 -0.4 2 Noroeste 10 Norte 0 -- -- 99
2018-01-30 08:00:00 -0.7 4 Noroeste 9 Noroeste 0 -- -- 99
2018-01-30 07:00:00 -0.5 3 Norte 12 Norte 0 -- -- 97
2018-01-30 06:00:00 0 4 Norte 11 Oeste 0 -- -- 94
2018-01-30 05:00:00 0.6 6 Noroeste 12 Noroeste 0 -- -- 97
2018-01-30 04:00:00 0.5 10 Norte 12 Norte 0 -- -- 95
2018-01-30 03:00:00 1.5 4 Oeste 15 Noroeste 0 -- -- 94
2018-01-30 02:00:00 1.7 8 Noroeste 15 Noroeste 0 -- -- 95
2018-01-30 01:00:00 2 7 Noroeste 12 Noroeste 0 -- -- 91
2018-01-30 00:00:00 2.4 7 Noroeste 14 Noroeste 0 -- -- 90
2018-01-29 23:00:00 3.4 5 Noroeste 14 Noroeste 0 -- -- 88
2018-01-29 22:00:00 4 8 Noroeste 12 Noroeste 0 -- -- 88
2018-01-29 21:00:00 5.1 6 Noroeste 9 Noroeste 0 -- -- 87
2018-01-29 20:00:00 6.6 7 Noroeste 12 Norte 0 -- -- 81
2018-01-29 19:00:00 8.7 2 Nordeste 17 Sudeste 0 -- -- 76
2018-01-29 18:00:00 10.1 14 Sudeste 19 Sudeste 0 -- -- 71
2018-01-29 17:00:00 12.3 15 Sudeste 20 Sudeste 0 -- -- 64
2018-01-29 16:00:00 13.2 14 Sudeste 17 Sudeste 0 -- -- 56
2018-01-29 15:00:00 13.8 12 Sudeste 14 Sudeste 0 -- -- 49
2018-01-29 14:00:00 12.5 6 Sudeste 9 Sudeste 0 -- -- 48
2018-01-29 13:00:00 10.3 3 Este 8 Este 0 -- -- 50
2018-01-29 12:00:00 7.5 6 Sur 9 Este 0 -- -- 64
2018-01-29 11:00:00 5.1 4 Sudeste 8 Este 0 -- -- 77
2018-01-29 10:00:00 1.3 2 Noroeste 12 Norte 0 -- -- 89
2018-01-29 09:00:00 -0.7 4 Noroeste 13 Noroeste 0 -- -- 94
2018-01-29 08:00:00 -0.4 4 Noroeste 18 Norte 0 -- -- 93
2018-01-29 07:00:00 0.3 13 Noroeste 18 Noroeste 0 -- -- 91
2018-01-29 06:00:00 0.5 11 Noroeste 16 Noroeste 0 -- -- 92
2018-01-29 05:00:00 0.7 7 Norte 14 Norte 0 -- -- 90
2018-01-29 04:00:00 1.1 5 Noroeste 10 Norte 0 -- -- 90
2018-01-29 03:00:00 1.7 4 Noroeste 13 Noroeste 0 -- -- 91
2018-01-29 02:00:00 2.1 5 Oeste 12 Oeste 0 -- -- 91
2018-01-29 01:00:00 2.8 14 Noroeste 19 Noroeste 0 -- -- 89
2018-01-29 00:00:00 3.6 6 Noroeste 15 Noroeste 0 -- -- 86
2018-01-28 23:00:00 4.2 8 Noroeste 14 Noroeste 0 -- -- 84
2018-01-28 22:00:00 5 4 Noroeste 9 Noroeste 0 -- -- 81
2018-01-28 21:00:00 5.9 9 Noroeste 15 Oeste 0 -- -- 81
2018-01-28 20:00:00 7.8 9 Noroeste 17 Noroeste 0 -- -- 75
2018-01-28 19:00:00 9.4 6 Este 20 Sudeste 0 -- -- 69
2018-01-28 18:00:00 10.8 17 Sudeste 25 Sudeste 0 -- -- 65
2018-01-28 17:00:00 13.1 19 Sudeste 28 Sudeste 0 -- -- 58
2018-01-28 16:00:00 14.7 15 Sudeste 18 Sudeste 0 -- -- 47
2018-01-28 15:00:00 15.1 11 Sudeste 15 Sudeste 0 -- -- 45
2018-01-28 14:00:00 14.6 3 Este 6 Sudeste 0 -- -- 43
2018-01-28 13:00:00 12.2 4 Sudeste 8 Sur 0 -- -- 48
2018-01-28 12:00:00 9.1 4 Sur 10 Sudeste 0 -- -- 57
2018-01-28 11:00:00 6.8 4 Sur 7 Sudoeste 0 -- -- 61
2018-01-28 10:00:00 3.3 3 Oeste 11 Norte 0 -- -- 71
2018-01-28 09:00:00 0.1 8 Noroeste 17 Norte 0 -- -- 79
2018-01-28 08:00:00 -0.6 5 Noroeste 14 Noroeste 0 -- -- 82
2018-01-28 07:00:00 0 4 Noroeste 10 Norte 0 -- -- 78
2018-01-28 06:00:00 0.3 4 Noroeste 8 Oeste 0 -- -- 76
2018-01-28 05:00:00 0.3 5 Noroeste 8 Noroeste 0 -- -- 76
2018-01-28 04:00:00 1.1 5 Noroeste 10 Norte 0 -- -- 71
2018-01-28 03:00:00 1.2 6 Norte 10 Norte 0 -- -- 72
2018-01-28 02:00:00 1.6 4 Sudoeste 14 Norte 0 -- -- 69
2018-01-28 01:00:00 1.5 5 Oeste 13 Norte 0 -- -- 71
2018-01-28 00:00:00 1.5 6 Noroeste 10 Norte 0 -- -- 69
2018-01-27 23:00:00 2.1 7 Oeste 12 Noroeste 0 -- -- 69
2018-01-27 22:00:00 3.1 3 Norte 9 Noroeste 0 -- -- 63
2018-01-27 21:00:00 3.8 6 Oeste 13 Oeste 0 -- -- 61
2018-01-27 20:00:00 5.2 9 Oeste 12 Oeste 0 -- -- 55
2018-01-27 19:00:00 7.3 6 Oeste 18 Norte 0 -- -- 47
2018-01-27 18:00:00 9.1 15 Norte 30 Norte 0 -- -- 40
2018-01-27 17:00:00 11 17 Norte 38 Norte 0 -- -- 37
2018-01-27 16:00:00 11.4 21 Norte 39 Norte 0 -- -- 36
2018-01-27 15:00:00 12.1 17 Norte 37 Norte 0 -- -- 35
2018-01-27 14:00:00 12.7 8 Este 41 Norte 0 -- -- 36
2018-01-27 13:00:00 11.8 13 Norte 43 Norte 0 -- -- 34
2018-01-27 12:00:00 10.4 27 Norte 51 Norte 0 -- -- 35
2018-01-27 11:00:00 9.1 21 Norte 47 Norte 0 -- -- 37
2018-01-27 10:00:00 7.7 18 Norte 40 Nordeste 0 -- -- 39
2018-01-27 09:00:00 1.8 27 Oeste 34 Oeste 0 -- -- 66
2018-01-27 08:00:00 2.6 21 Oeste 33 Oeste 0 -- -- 62
2018-01-27 07:00:00 3.8 18 Noroeste 37 Norte 0 -- -- 60
2018-01-27 06:00:00 6 9 Noroeste 51 Nordeste 0 -- -- 46
2018-01-27 05:00:00 6.3 13 Norte 40 Norte 0 -- -- 45
2018-01-27 04:00:00 6.7 17 Norte 49 Norte 0 -- -- 48
2018-01-27 03:00:00 6.7 19 Norte 48 Norte 0 -- -- 50
2018-01-27 02:00:00 4.7 13 Oeste 33 Noroeste 0 -- -- 59
2018-01-27 01:00:00 4.1 17 Oeste 50 Norte 0 -- -- 65
2018-01-27 00:00:00 5.2 15 Noroeste 41 Norte 0 -- -- 55
2018-01-26 23:00:00 5.1 21 Oeste 49 Norte 0 -- -- 60
2018-01-26 22:00:00 7.6 20 Norte 58 Norte 0 -- -- 42
2018-01-26 21:00:00 7.2 20 Norte 51 Norte 0 -- -- 44
2018-01-26 20:00:00 7.1 15 Norte 50 Nordeste 0 -- -- 43
2018-01-26 19:00:00 7.4 18 Norte 48 Nordeste 0 -- -- 38
2018-01-26 18:00:00 8.1 22 Norte 63 Norte 0 -- -- 38
2018-01-26 17:00:00 8.2 16 Norte 39 Norte 0 -- -- 49
2018-01-26 16:00:00 8 14 Oeste 32 Noroeste 0 -- -- 61
2018-01-26 15:00:00 8.9 20 Norte 41 Norte 0 -- -- 43
2018-01-26 14:00:00 8.6 17 Norte 41 Norte 0 -- -- 45
2018-01-26 13:00:00 8.4 17 Norte 47 Norte 0 -- -- 41
2018-01-26 12:00:00 8 24 Norte 48 Norte 0 -- -- 43
2018-01-26 11:00:00 7.9 23 Norte 50 Norte 0 -- -- 39
2018-01-26 10:00:00 7.8 24 Norte 73 Norte 0.2 -- -- 43
2018-01-26 09:00:00 7.3 17 Norte 59 Norte 0 -- -- 49
2018-01-26 08:00:00 7.1 25 Norte 53 Norte 0 -- -- 56
2018-01-26 07:00:00 4.6 12 Sudeste 30 Sudeste 0 -- -- 83
2018-01-26 06:00:00 5 9 Sur 31 Noroeste 0 -- -- 84
2018-01-26 05:00:00 5.2 17 Noroeste 35 Noroeste 0.2 -- -- 81
2018-01-26 04:00:00 4.6 22 Oeste 30 Noroeste 0.2 -- -- 90
2018-01-26 03:00:00 4.4 10 Oeste 20 Oeste 1 -- -- 95
2018-01-26 02:00:00 4.3 6 Oeste 22 Oeste 0.2 -- -- 96
2018-01-26 01:00:00 4.5 17 Oeste 22 Oeste 1.2 -- -- 95
2018-01-26 00:00:00 5.1 4 Oeste 7 Noroeste 1.6 -- -- 99
2018-01-25 23:00:00 5.3 3 Noroeste 10 Oeste 2 -- -- 98
2018-01-25 22:00:00 5.5 4 Oeste 14 Oeste 2 -- -- 96
2018-01-25 21:00:00 5.9 10 Oeste 15 Oeste 1.8 -- -- 95
2018-01-25 20:00:00 6.6 8 Oeste 19 Oeste 2.8 -- -- 94
2018-01-25 19:00:00 7.8 14 Oeste 35 Noroeste 0.2 -- -- 83
2018-01-25 18:00:00 8.6 5 Noroeste 10 Sudoeste 0 -- -- 70
2018-01-25 17:00:00 9 6 Norte 7 Norte 0 -- -- 67
2018-01-25 16:00:00 9.6 0 Calma 6 Sur 0 -- -- 66
2018-01-25 15:00:00 9.1 0 Calma 6 Nordeste 0 -- -- 68
2018-01-25 14:00:00 7.8 3 Sudeste 7 Oeste 0 -- -- 74
2018-01-25 13:00:00 6.3 2 Este 5 Oeste 0 -- -- 79
2018-01-25 12:00:00 5.5 2 Noroeste 7 Oeste 0 -- -- 80
2018-01-25 11:00:00 3.8 4 Oeste 8 Noroeste 0 -- -- 87
2018-01-25 10:00:00 1.7 3 Norte 6 Norte 0 -- -- 92
2018-01-25 09:00:00 1.2 4 Noroeste 11 Noroeste 0 -- -- 92
2018-01-25 08:00:00 1.4 7 Noroeste 13 Noroeste 0 -- -- 92
2018-01-25 07:00:00 1.5 8 Oeste 12 Norte 0 -- -- 92
2018-01-25 06:00:00 1.3 6 Noroeste 9 Noroeste 0 -- -- 91
2018-01-25 05:00:00 2.3 3 Noroeste 9 Noroeste 0 -- -- 88
2018-01-25 04:00:00 2.7 4 Oeste 10 Noroeste 0 -- -- 86
2018-01-25 03:00:00 3.6 3 Oeste 11 Noroeste 0 -- -- 83
2018-01-25 02:00:00 4 7 Noroeste 12 Noroeste 0 -- -- 81
2018-01-25 01:00:00 4.5 5 Noroeste 13 Norte 0 -- -- 79
2018-01-25 00:00:00 4.9 3 Noroeste 15 Norte 0 -- -- 78
2018-01-24 23:00:00 5.1 10 Noroeste 18 Norte 0 -- -- 78
2018-01-24 22:00:00 5.7 9 Noroeste 14 Noroeste 0 -- -- 75
2018-01-24 21:00:00 6.4 8 Noroeste 13 Oeste 0 -- -- 72
2018-01-24 20:00:00 7.5 10 Noroeste 13 Noroeste 0 -- -- 68
2018-01-24 19:00:00 9.8 7 Noroeste 14 Norte 0 -- -- 60
2018-01-24 18:00:00 13.8 4 Este 9 Sudeste 0 -- -- 47
2018-01-24 17:00:00 16.4 7 Sudeste 9 Sudeste 0 -- -- 41
2018-01-24 16:00:00 16.7 7 Sudeste 10 Sudeste 0 -- -- 41
2018-01-24 15:00:00 15.9 6 Sudeste 10 Sudeste 0 -- -- 43
2018-01-24 14:00:00 14.9 3 Sudeste 6 Sudeste 0 -- -- 47
2018-01-24 13:00:00 12.1 0 Calma 6 Sur 0 -- -- 52
2018-01-24 12:00:00 9.3 4 Sudeste 7 Sudeste 0 -- -- 64
2018-01-24 11:00:00 6.4 3 Sur 6 Sudoeste 0 -- -- 77
2018-01-24 10:00:00 3.6 2 Sur 9 Norte 0 -- -- 84
2018-01-24 09:00:00 1.5 8 Noroeste 13 Noroeste 0 -- -- 88
2018-01-24 08:00:00 0.9 8 Noroeste 14 Noroeste 0 -- -- 90
2018-01-24 07:00:00 1 8 Norte 13 Noroeste 0 -- -- 90
2018-01-24 06:00:00 1.3 8 Noroeste 10 Noroeste 0 -- -- 89
2018-01-24 05:00:00 1.3 8 Noroeste 13 Norte 0 -- -- 92
2018-01-24 04:00:00 1.4 8 Norte 13 Noroeste 0 -- -- 91
2018-01-24 03:00:00 2.6 9 Noroeste 13 Norte 0 -- -- 86
2018-01-24 02:00:00 2.2 10 Norte 14 Oeste 0 -- -- 88
2018-01-24 01:00:00 2.8 8 Noroeste 17 Noroeste 0 -- -- 86
2018-01-24 00:00:00 3.8 10 Noroeste 17 Norte 0 -- -- 84
2018-01-23 23:00:00 4.4 5 Noroeste 12 Noroeste 0 -- -- 83
2018-01-23 22:00:00 6 9 Noroeste 16 Oeste 0 -- -- 76
2018-01-23 21:00:00 6.6 8 Noroeste 15 Noroeste 0 -- -- 78
2018-01-23 20:00:00 8.4 6 Noroeste 9 Noroeste 0 -- -- 71
2018-01-23 19:00:00 10.1 6 Norte 13 Norte 0 -- -- 71
2018-01-23 18:00:00 12.3 6 Este 18 Sudeste 0 -- -- 65
2018-01-23 17:00:00 13.8 17 Sudeste 19 Sudeste 0 -- -- 59
2018-01-23 16:00:00 15.8 14 Sudeste 17 Sudeste 0 -- -- 43
2018-01-23 15:00:00 14.3 12 Sudeste 14 Sudeste 0 -- -- 45
2018-01-23 14:00:00 15.1 3 Sudeste 6 Sudeste 0 -- -- 42
2018-01-23 13:00:00 13.6 5 Sur 8 Sur 0 -- -- 46
2018-01-23 12:00:00 9.1 3 Este 10 Sudeste 0 -- -- 60
2018-01-23 11:00:00 6.9 3 Sudoeste 9 Oeste 0 -- -- 66
2018-01-23 10:00:00 4 6 Norte 11 Noroeste 0 -- -- 77
2018-01-23 09:00:00 2.4 6 Oeste 16 Norte 0 -- -- 80
2018-01-23 08:00:00 2.3 6 Noroeste 17 Norte 0 -- -- 84
2018-01-23 07:00:00 2.5 10 Norte 14 Norte 0 -- -- 80
2018-01-23 06:00:00 3 10 Norte 15 Norte 0 -- -- 80
2018-01-23 05:00:00 3.8 6 Norte 15 Norte 0 -- -- 80
2018-01-23 04:00:00 4.4 5 Noroeste 11 Norte 0 -- -- 80
2018-01-23 03:00:00 5.1 5 Noroeste 11 Noroeste 0 -- -- 80
2018-01-23 02:00:00 5.9 9 Norte 12 Norte 0 -- -- 81
2018-01-23 01:00:00 6.6 7 Sudeste 15 Nordeste 0 -- -- 84
2018-01-23 00:00:00 8 4 Sudeste 15 Sudeste 0 -- -- 78
2018-01-22 23:00:00 9.6 6 Sudoeste 24 Sudoeste 0 -- -- 72
2018-01-22 22:00:00 11 15 Oeste 27 Sudoeste 0 -- -- 67
2018-01-22 21:00:00 11 14 Noroeste 26 Oeste 0 -- -- 68
2018-01-22 20:00:00 10.8 10 Noroeste 20 Sudoeste 0 -- -- 69
2018-01-22 19:00:00 12.1 7 Norte 18 Norte 0 -- -- 68
2018-01-22 18:00:00 14.4 4 Norte 12 Norte 0 -- -- 62
2018-01-22 17:00:00 16.8 6 Sudeste 9 Sudeste 0 -- -- 55
2018-01-22 16:00:00 16.4 9 Sudeste 17 Sudeste 0 -- -- 56
2018-01-22 15:00:00 15.5 12 Sudeste 18 Sudeste 0 -- -- 59
2018-01-22 14:00:00 14.2 12 Sudeste 17 Sudeste 0 -- -- 61
2018-01-22 13:00:00 12.1 11 Sudeste 14 Sudeste 0 -- -- 64
2018-01-22 12:00:00 10.9 3 Sudeste 8 Norte 0 -- -- 68
2018-01-22 11:00:00 7.4 2 Nordeste 6 Noroeste 0 -- -- 79
2018-01-22 10:00:00 4.6 3 Oeste 12 Noroeste 0 -- -- 91
2018-01-22 09:00:00 2.5 6 Noroeste 15 Noroeste 0 -- -- 98
2018-01-22 08:00:00 2.1 8 Noroeste 12 Norte 0 -- -- 98
2018-01-22 07:00:00 2.4 5 Norte 14 Norte 0 -- -- 94
2018-01-22 06:00:00 3.4 13 Norte 18 Norte 0 -- -- 92
2018-01-22 05:00:00 3.9 8 Noroeste 13 Norte 0 -- -- 92
2018-01-22 04:00:00 4.3 10 Norte 17 Norte 0 -- -- 91
2018-01-22 03:00:00 5.1 8 Norte 17 Norte 0 -- -- 87
2018-01-22 02:00:00 6.2 6 Noroeste 17 Norte 0 -- -- 84
2018-01-22 01:00:00 7.2 4 Noroeste 17 Noroeste 0 -- -- 80
2018-01-22 00:00:00 8.7 13 Norte 18 Noroeste 0 -- -- 75